METAR AND TAF INFORMATION
METAR FOR EKYT
ADDS - METARS form results

(2124 UTC 03 August 2021)
Data provider http://aviationweather.gov/metar/data/
 
METAR text: EKYT 032120Z AUTO 27008KT 9999 NCD 14/12 Q1013
Conditions at: EKYT (ALBORG , DK) observed 2120 UTC 03 August 2021
Temperature: 14.0°C (57°F)
Dewpoint: 12.0°C (54°F) [RH = 88%]
Pressure (altimeter): 29.91 inches Hg (1013.0 mb)
Winds: from the W (270 degrees) at 9 MPH (8 knots; 4.1 m/s)
Visibility: 6 or more miles (10+ km)
Ceiling: at least 12,000 feet AGL
Clouds: sky clear below 12,000 feet AGL
Weather: no significant weather observed at this time

METAR text: EKYT 032050Z AUTO 26009KT 9999 FEW031/// 14/12 Q1012
Conditions at: EKYT (ALBORG , DK) observed 2050 UTC 03 August 2021
Temperature: 14.0°C (57°F)
Dewpoint: 12.0°C (54°F) [RH = 88%]
Pressure (altimeter): 29.88 inches Hg (1012.0 mb)
Winds: from the W (260 degrees) at 10 MPH (9 knots; 4.6 m/s)
Visibility: 6 or more miles (10+ km)
Ceiling: at least 12,000 feet AGL
Clouds: few clouds at 3100 feet AGL
Weather: no significant weather observed at this time

Forecast for: EKYT (ALBORG , DK)
Text: TAF EKYT 032010Z 0321/0421 26010KT 9999 SCT030
Forecast period: 2100 UTC 03 August 2021 to 1500 UTC 04 August 2021
Forecast type: FROM: standard forecast or significant change
Winds: from the W (260 degrees) at 12 MPH (10 knots; 5.1 m/s)
Visibility: 6 or more miles (10+ km)
Ceiling: at least 12,000 feet AGL
Clouds: scattered clouds at 3000 feet AGL
Weather: no significant weather forecast for this period
Text: BECMG 0415/0418 VRB03KT
Forecast period: 1500 to 2100 UTC 04 August 2021
Forecast type: BECOMING: Conditions expected to become as follows by 1800 UTC 04 August 2021
Winds: variable direction winds at 3 MPH (3 knots; 1.5 m/s)
Visibility: 6 or more miles (10+ km)
Ceiling: at least 12,000 feet AGL
Clouds: scattered clouds at 3000 feet AGL
Weather: no significant weather forecast for this period

 AIRPORT MAP

 RUNWAY INFORMATION
Runway 08R Runway length 8363 ft Runway width 74 ft
Runway elevation 7 ft Runway displaced threshold 0 ft Runway heading 83
Runway 26L Runway length 8363 ft Runway width 74 ft
Runway elevation 10 ft Runway displaced threshold 0 ft Runway heading 263
Runway 08L Runway length 8707 ft Runway width 148 ft
Runway elevation 8 ft Runway displaced threshold 0 ft Runway heading 83
Runway 26R Runway length 8707 ft Runway width 148 ft
Runway elevation 10 ft Runway displaced threshold 0 ft Runway heading 263

 AIRPORT FREQUENCIES
Type APP Name APP Frequency 123.975 MHZ
Type ATIS Name ATIS Frequency 120.475 MHZ
Type MISC Name HANDLING Frequency 131.55 MHZ
Type TWR Name TWR Frequency 118.3 MHZ

 AIRPORT NEAR NAVIGATION AIDS
Type TACAN Name Aalborg Frequency 116700 KHZ
Type VOR-DME Name Aalborg Frequency 116700 KHZ
Type NDB Name Aalborg Frequency 398 KHZ





Powered by Virtual Airlines Manager

Maps by Rafael Santos